sensor_id;sensor_type;location;lat;lon;timestamp;temperature;humidity
13970;DHT22;7057;49.984;8.404;2023-03-01T00:00:07;0.40;99.90
13970;DHT22;7057;49.984;8.404;2023-03-01T00:02:34;0.40;99.90
13970;DHT22;7057;49.984;8.404;2023-03-01T00:05:04;0.40;99.90
13970;DHT22;7057;49.984;8.404;2023-03-01T00:07:33;0.30;99.90
13970;DHT22;7057;49.984;8.404;2023-03-01T00:10:00;0.40;99.90
13970;DHT22;7057;49.984;8.404;2023-03-01T00:12:27;0.40;99.90
13970;DHT22;7057;49.984;8.404;2023-03-01T00:14:54;0.40;99.90
13970;DHT22;7057;49.984;8.404;2023-03-01T00:17:21;0.40;99.90
13970;DHT22;7057;49.984;8.404;2023-03-01T00:19:49;0.40;99.90
13970;DHT22;7057;49.984;8.404;2023-03-01T00:22:17;0.30;99.90
13970;DHT22;7057;49.984;8.404;2023-03-01T00:24:44;0.30;99.90
13970;DHT22;7057;49.984;8.404;2023-03-01T00:27:11;0.30;99.90
13970;DHT22;7057;49.984;8.404;2023-03-01T00:29:39;0.20;99.90
13970;DHT22;7057;49.984;8.404;2023-03-01T00:32:06;0.20;99.90
13970;DHT22;7057;49.984;8.404;2023-03-01T00:34:33;0.00;99.90
13970;DHT22;7057;49.984;8.404;2023-03-01T00:37:00;0.20;99.90
13970;DHT22;7057;49.984;8.404;2023-03-01T00:39:32;0.20;99.90
13970;DHT22;7057;49.984;8.404;2023-03-01T00:41:59;0.20;99.90
13970;DHT22;7057;49.984;8.404;2023-03-01T00:44:27;0.20;99.90
13970;DHT22;7057;49.984;8.404;2023-03-01T00:46:54;0.20;99.90
13970;DHT22;7057;49.984;8.404;2023-03-01T00:49:21;0.30;99.90
13970;DHT22;7057;49.984;8.404;2023-03-01T00:51:50;0.30;99.90
13970;DHT22;7057;49.984;8.404;2023-03-01T00:54:17;0.30;99.90
13970;DHT22;7057;49.984;8.404;2023-03-01T00:56:45;0.40;99.90
13970;DHT22;7057;49.984;8.404;2023-03-01T00:59:12;0.40;99.90
13970;DHT22;7057;49.984;8.404;2023-03-01T01:01:40;0.30;99.90
13970;DHT22;7057;49.984;8.404;2023-03-01T01:04:09;0.40;99.90
13970;DHT22;7057;49.984;8.404;2023-03-01T01:06:39;0.30;99.90
13970;DHT22;7057;49.984;8.404;2023-03-01T01:09:09;0.30;99.90
13970;DHT22;7057;49.984;8.404;2023-03-01T01:11:45;0.30;99.90
13970;DHT22;7057;49.984;8.404;2023-03-01T01:14:13;0.30;99.90
13970;DHT22;7057;49.984;8.404;2023-03-01T01:16:41;0.30;99.90
13970;DHT22;7057;49.984;8.404;2023-03-01T01:19:09;0.20;99.90
13970;DHT22;7057;49.984;8.404;2023-03-01T01:21:37;0.30;99.90
13970;DHT22;7057;49.984;8.404;2023-03-01T01:24:05;0.30;99.90
13970;DHT22;7057;49.984;8.404;2023-03-01T01:26:33;0.30;99.90
13970;DHT22;7057;49.984;8.404;2023-03-01T01:29:03;0.30;99.90
13970;DHT22;7057;49.984;8.404;2023-03-01T01:31:32;0.30;99.90
13970;DHT22;7057;49.984;8.404;2023-03-01T01:34:01;0.30;99.90
13970;DHT22;7057;49.984;8.404;2023-03-01T01:36:28;0.30;99.90
13970;DHT22;7057;49.984;8.404;2023-03-01T01:38:56;0.30;99.90
13970;DHT22;7057;49.984;8.404;2023-03-01T01:41:25;0.40;99.90
13970;DHT22;7057;49.984;8.404;2023-03-01T01:44:12;0.40;99.90
13970;DHT22;7057;49.984;8.404;2023-03-01T01:46:41;0.30;99.90
13970;DHT22;7057;49.984;8.404;2023-03-01T01:49:19;0.30;99.90
13970;DHT22;7057;49.984;8.404;2023-03-01T01:51:48;0.40;99.90
13970;DHT22;7057;49.984;8.404;2023-03-01T01:54:20;0.40;99.90
13970;DHT22;7057;49.984;8.404;2023-03-01T01:56:50;0.40;99.90
13970;DHT22;7057;49.984;8.404;2023-03-01T01:59:20;0.40;99.90
13970;DHT22;7057;49.984;8.404;2023-03-01T02:01:50;0.40;99.90
13970;DHT22;7057;49.984;8.404;2023-03-01T02:04:18;0.40;99.90
13970;DHT22;7057;49.984;8.404;2023-03-01T02:06:48;0.40;99.90
13970;DHT22;7057;49.984;8.404;2023-03-01T02:09:20;0.50;99.90
13970;DHT22;7057;49.984;8.404;2023-03-01T02:11:49;0.50;99.90
13970;DHT22;7057;49.984;8.404;2023-03-01T02:14:17;0.50;99.90
13970;DHT22;7057;49.984;8.404;2023-03-01T02:16:46;0.50;99.90
13970;DHT22;7057;49.984;8.404;2023-03-01T02:19:24;0.50;99.90
13970;DHT22;7057;49.984;8.404;2023-03-01T02:22:01;0.40;99.90
13970;DHT22;7057;49.984;8.404;2023-03-01T02:24:37;0.40;99.90
13970;DHT22;7057;49.984;8.404;2023-03-01T02:27:07;0.40;99.90
13970;DHT22;7057;49.984;8.404;2023-03-01T02:29:37;0.40;99.90
13970;DHT22;7057;49.984;8.404;2023-03-01T02:32:05;0.30;99.90
13970;DHT22;7057;49.984;8.404;2023-03-01T02:34:32;0.30;99.90
13970;DHT22;7057;49.984;8.404;2023-03-01T02:37:02;0.30;99.90
13970;DHT22;7057;49.984;8.404;2023-03-01T02:39:34;0.30;99.90
13970;DHT22;7057;49.984;8.404;2023-03-01T02:42:10;0.30;99.90
13970;DHT22;7057;49.984;8.404;2023-03-01T02:44:39;0.40;99.90
13970;DHT22;7057;49.984;8.404;2023-03-01T02:47:06;0.40;99.90
13970;DHT22;7057;49.984;8.404;2023-03-01T02:49:35;0.50;99.90
13970;DHT22;7057;49.984;8.404;2023-03-01T02:52:23;0.50;99.90
13970;DHT22;7057;49.984;8.404;2023-03-01T02:54:57;0.50;99.90
13970;DHT22;7057;49.984;8.404;2023-03-01T02:57:27;0.50;99.90
13970;DHT22;7057;49.984;8.404;2023-03-01T02:59:58;0.50;99.90
13970;DHT22;7057;49.984;8.404;2023-03-01T03:02:28;0.50;99.90
13970;DHT22;7057;49.984;8.404;2023-03-01T03:05:08;0.50;99.90
13970;DHT22;7057;49.984;8.404;2023-03-01T03:07:37;0.50;99.90
13970;DHT22;7057;49.984;8.404;2023-03-01T03:10:08;0.60;99.90
13970;DHT22;7057;49.984;8.404;2023-03-01T03:12:37;0.60;99.90
13970;DHT22;7057;49.984;8.404;2023-03-01T03:15:08;0.70;99.90
13970;DHT22;7057;49.984;8.404;2023-03-01T03:17:39;0.70;99.90
13970;DHT22;7057;49.984;8.404;2023-03-01T03:20:10;0.60;99.90
13970;DHT22;7057;49.984;8.404;2023-03-01T03:22:38;0.70;99.90
13970;DHT22;7057;49.984;8.404;2023-03-01T03:25:07;0.60;99.90
13970;DHT22;7057;49.984;8.404;2023-03-01T03:27:36;0.60;99.90
13970;DHT22;7057;49.984;8.404;2023-03-01T03:30:06;0.60;99.90
13970;DHT22;7057;49.984;8.404;2023-03-01T03:32:35;0.60;99.90
13970;DHT22;7057;49.984;8.404;2023-03-01T03:35:03;0.60;99.90
13970;DHT22;7057;49.984;8.404;2023-03-01T03:37:36;0.60;99.90
13970;DHT22;7057;49.984;8.404;2023-03-01T03:40:20;0.60;99.90
13970;DHT22;7057;49.984;8.404;2023-03-01T03:42:47;0.60;99.90
13970;DHT22;7057;49.984;8.404;2023-03-01T03:45:17;0.60;99.90
13970;DHT22;7057;49.984;8.404;2023-03-01T03:47:44;0.60;99.90
13970;DHT22;7057;49.984;8.404;2023-03-01T03:50:13;0.60;99.90
13970;DHT22;7057;49.984;8.404;2023-03-01T03:52:40;0.60;99.90
13970;DHT22;7057;49.984;8.404;2023-03-01T03:55:09;0.60;99.90
13970;DHT22;7057;49.984;8.404;2023-03-01T03:57:37;0.60;99.90
13970;DHT22;7057;49.984;8.404;2023-03-01T04:00:07;0.50;99.90
13970;DHT22;7057;49.984;8.404;2023-03-01T04:02:40;0.50;99.90
13970;DHT22;7057;49.984;8.404;2023-03-01T04:05:09;0.50;99.90
13970;DHT22;7057;49.984;8.404;2023-03-01T04:07:37;0.50;99.90
13970;DHT22;7057;49.984;8.404;2023-03-01T04:10:07;0.50;99.90
13970;DHT22;7057;49.984;8.404;2023-03-01T04:12:34;0.50;99.90
13970;DHT22;7057;49.984;8.404;2023-03-01T04:15:03;0.50;99.90
13970;DHT22;7057;49.984;8.404;2023-03-01T04:17:40;0.50;99.90
13970;DHT22;7057;49.984;8.404;2023-03-01T04:20:08;0.60;99.90
13970;DHT22;7057;49.984;8.404;2023-03-01T04:22:38;0.60;99.90
13970;DHT22;7057;49.984;8.404;2023-03-01T04:25:06;0.70;99.90
13970;DHT22;7057;49.984;8.404;2023-03-01T04:27:34;0.60;99.90
13970;DHT22;7057;49.984;8.404;2023-03-01T04:30:02;0.50;99.90
13970;DHT22;7057;49.984;8.404;2023-03-01T04:32:29;0.60;99.90
13970;DHT22;7057;49.984;8.404;2023-03-01T04:34:58;0.60;99.90
13970;DHT22;7057;49.984;8.404;2023-03-01T04:37:25;0.50;99.90
13970;DHT22;7057;49.984;8.404;2023-03-01T04:39:53;0.50;99.90
13970;DHT22;7057;49.984;8.404;2023-03-01T04:42:20;0.50;99.90
13970;DHT22;7057;49.984;8.404;2023-03-01T04:44:47;0.60;99.90
13970;DHT22;7057;49.984;8.404;2023-03-01T04:47:17;0.50;99.90
13970;DHT22;7057;49.984;8.404;2023-03-01T04:49:44;0.50;99.90
13970;DHT22;7057;49.984;8.404;2023-03-01T04:52:13;0.40;99.90
13970;DHT22;7057;49.984;8.404;2023-03-01T04:54:40;0.50;99.90
13970;DHT22;7057;49.984;8.404;2023-03-01T04:57:07;0.40;99.90
13970;DHT22;7057;49.984;8.404;2023-03-01T04:59:34;0.40;99.90
13970;DHT22;7057;49.984;8.404;2023-03-01T05:02:02;0.30;99.90
13970;DHT22;7057;49.984;8.404;2023-03-01T05:04:30;0.40;99.90
13970;DHT22;7057;49.984;8.404;2023-03-01T05:06:57;0.40;99.90
13970;DHT22;7057;49.984;8.404;2023-03-01T05:09:26;0.40;99.90
13970;DHT22;7057;49.984;8.404;2023-03-01T05:11:54;0.40;99.90
13970;DHT22;7057;49.984;8.404;2023-03-01T05:14:21;0.40;99.90
13970;DHT22;7057;49.984;8.404;2023-03-01T05:16:48;0.40;99.90
13970;DHT22;7057;49.984;8.404;2023-03-01T05:19:16;0.50;99.90
13970;DHT22;7057;49.984;8.404;2023-03-01T05:21:48;0.40;99.90
13970;DHT22;7057;49.984;8.404;2023-03-01T05:24:35;0.40;99.90
13970;DHT22;7057;49.984;8.404;2023-03-01T05:27:02;0.40;99.90
13970;DHT22;7057;49.984;8.404;2023-03-01T05:29:31;0.30;99.90
13970;DHT22;7057;49.984;8.404;2023-03-01T05:32:02;0.30;99.90
13970;DHT22;7057;49.984;8.404;2023-03-01T05:34:31;0.30;99.90
13970;DHT22;7057;49.984;8.404;2023-03-01T05:36:59;0.30;99.90
13970;DHT22;7057;49.984;8.404;2023-03-01T05:39:28;0.40;99.90
13970;DHT22;7057;49.984;8.404;2023-03-01T05:41:58;0.40;99.90
13970;DHT22;7057;49.984;8.404;2023-03-01T05:44:26;0.30;99.90
13970;DHT22;7057;49.984;8.404;2023-03-01T05:46:54;0.30;99.90
13970;DHT22;7057;49.984;8.404;2023-03-01T05:49:22;0.40;99.90
13970;DHT22;7057;49.984;8.404;2023-03-01T05:51:52;0.50;99.90
13970;DHT22;7057;49.984;8.404;2023-03-01T05:54:20;0.50;99.90
13970;DHT22;7057;49.984;8.404;2023-03-01T05:56:48;0.50;99.90
13970;DHT22;7057;49.984;8.404;2023-03-01T05:59:17;0.50;99.90
13970;DHT22;7057;49.984;8.404;2023-03-01T06:01:44;0.50;99.90
13970;DHT22;7057;49.984;8.404;2023-03-01T06:04:11;0.50;99.90
13970;DHT22;7057;49.984;8.404;2023-03-01T06:06:38;0.40;99.90
13970;DHT22;7057;49.984;8.404;2023-03-01T06:09:06;0.60;99.90
13970;DHT22;7057;49.984;8.404;2023-03-01T06:11:35;0.50;99.90
13970;DHT22;7057;49.984;8.404;2023-03-01T06:14:03;0.60;99.90
13970;DHT22;7057;49.984;8.404;2023-03-01T06:16:33;0.50;99.90
13970;DHT22;7057;49.984;8.404;2023-03-01T06:19:00;0.60;99.90
13970;DHT22;7057;49.984;8.404;2023-03-01T06:21:27;0.50;99.90
13970;DHT22;7057;49.984;8.404;2023-03-01T06:23:55;0.60;99.90
13970;DHT22;7057;49.984;8.404;2023-03-01T06:26:22;0.60;99.90
13970;DHT22;7057;49.984;8.404;2023-03-01T06:28:49;0.60;99.90
13970;DHT22;7057;49.984;8.404;2023-03-01T06:31:16;0.60;99.90
13970;DHT22;7057;49.984;8.404;2023-03-01T06:33:45;0.60;99.90
13970;DHT22;7057;49.984;8.404;2023-03-01T06:36:12;0.60;99.90
13970;DHT22;7057;49.984;8.404;2023-03-01T06:38:39;0.70;99.90
13970;DHT22;7057;49.984;8.404;2023-03-01T06:41:07;0.70;99.90
13970;DHT22;7057;49.984;8.404;2023-03-01T06:43:34;0.70;99.90
13970;DHT22;7057;49.984;8.404;2023-03-01T06:46:04;0.70;99.90
13970;DHT22;7057;49.984;8.404;2023-03-01T06:48:32;0.80;99.90
13970;DHT22;7057;49.984;8.404;2023-03-01T06:51:01;0.70;99.90
13970;DHT22;7057;49.984;8.404;2023-03-01T06:53:28;0.70;99.90
13970;DHT22;7057;49.984;8.404;2023-03-01T06:55:56;0.70;99.90
13970;DHT22;7057;49.984;8.404;2023-03-01T06:58:23;0.70;99.90
13970;DHT22;7057;49.984;8.404;2023-03-01T07:00:50;0.70;99.90
13970;DHT22;7057;49.984;8.404;2023-03-01T07:03:18;0.70;99.90
13970;DHT22;7057;49.984;8.404;2023-03-01T07:05:48;0.70;99.90
13970;DHT22;7057;49.984;8.404;2023-03-01T07:08:17;0.70;99.90
13970;DHT22;7057;49.984;8.404;2023-03-01T07:10:45;0.70;99.90
13970;DHT22;7057;49.984;8.404;2023-03-01T07:13:12;0.80;99.90
13970;DHT22;7057;49.984;8.404;2023-03-01T07:15:40;0.70;99.90
13970;DHT22;7057;49.984;8.404;2023-03-01T07:18:07;0.70;99.90
13970;DHT22;7057;49.984;8.404;2023-03-01T07:20:34;0.70;99.90
13970;DHT22;7057;49.984;8.404;2023-03-01T07:23:02;0.70;99.90
13970;DHT22;7057;49.984;8.404;2023-03-01T07:25:30;0.80;99.90
13970;DHT22;7057;49.984;8.404;2023-03-01T07:27:58;0.80;99.90
13970;DHT22;7057;49.984;8.404;2023-03-01T07:30:25;0.80;99.90
13970;DHT22;7057;49.984;8.404;2023-03-01T07:32:54;0.90;99.90
13970;DHT22;7057;49.984;8.404;2023-03-01T07:35:21;1.00;99.90
13970;DHT22;7057;49.984;8.404;2023-03-01T07:37:48;1.00;99.90
13970;DHT22;7057;49.984;8.404;2023-03-01T07:40:16;1.00;99.90
13970;DHT22;7057;49.984;8.404;2023-03-01T07:42:44;1.10;99.90
13970;DHT22;7057;49.984;8.404;2023-03-01T07:45:12;1.10;99.90
13970;DHT22;7057;49.984;8.404;2023-03-01T07:47:39;1.20;99.90
13970;DHT22;7057;49.984;8.404;2023-03-01T07:50:08;1.30;99.90
13970;DHT22;7057;49.984;8.404;2023-03-01T07:52:35;1.30;99.90
13970;DHT22;7057;49.984;8.404;2023-03-01T07:55:03;1.40;99.90
13970;DHT22;7057;49.984;8.404;2023-03-01T07:57:30;1.50;99.90
13970;DHT22;7057;49.984;8.404;2023-03-01T07:59:58;1.50;99.90
13970;DHT22;7057;49.984;8.404;2023-03-01T08:02:26;1.60;99.90
13970;DHT22;7057;49.984;8.404;2023-03-01T08:04:53;1.70;99.90
13970;DHT22;7057;49.984;8.404;2023-03-01T08:07:20;1.80;99.90
13970;DHT22;7057;49.984;8.404;2023-03-01T08:09:47;1.90;99.90
13970;DHT22;7057;49.984;8.404;2023-03-01T08:12:14;1.70;99.90
13970;DHT22;7057;49.984;8.404;2023-03-01T08:14:42;2.00;99.90
13970;DHT22;7057;49.984;8.404;2023-03-01T08:17:13;2.10;99.90
13970;DHT22;7057;49.984;8.404;2023-03-01T08:19:42;2.10;99.90
13970;DHT22;7057;49.984;8.404;2023-03-01T08:22:09;2.10;99.90
13970;DHT22;7057;49.984;8.404;2023-03-01T08:24:36;2.30;99.90
13970;DHT22;7057;49.984;8.404;2023-03-01T08:27:03;2.40;99.90
13970;DHT22;7057;49.984;8.404;2023-03-01T08:29:32;2.40;99.90
13970;DHT22;7057;49.984;8.404;2023-03-01T08:31:59;2.40;99.90
13970;DHT22;7057;49.984;8.404;2023-03-01T08:34:28;2.50;99.90
13970;DHT22;7057;49.984;8.404;2023-03-01T08:36:57;2.60;99.90
13970;DHT22;7057;49.984;8.404;2023-03-01T08:39:24;2.60;99.90
13970;DHT22;7057;49.984;8.404;2023-03-01T08:41:51;2.70;99.90
13970;DHT22;7057;49.984;8.404;2023-03-01T08:44:19;2.80;99.90
13970;DHT22;7057;49.984;8.404;2023-03-01T08:46:47;2.80;99.90
13970;DHT22;7057;49.984;8.404;2023-03-01T08:49:17;2.80;99.90
13970;DHT22;7057;49.984;8.404;2023-03-01T08:51:46;2.90;99.90
13970;DHT22;7057;49.984;8.404;2023-03-01T08:54:15;2.90;99.90
13970;DHT22;7057;49.984;8.404;2023-03-01T08:56:43;3.00;99.90
13970;DHT22;7057;49.984;8.404;2023-03-01T08:59:11;3.00;99.90
13970;DHT22;7057;49.984;8.404;2023-03-01T09:01:39;3.10;99.90
13970;DHT22;7057;49.984;8.404;2023-03-01T09:04:09;3.30;99.90
13970;DHT22;7057;49.984;8.404;2023-03-01T09:06:36;3.40;99.90
13970;DHT22;7057;49.984;8.404;2023-03-01T09:09:05;3.60;99.90
13970;DHT22;7057;49.984;8.404;2023-03-01T09:11:33;3.60;99.90
13970;DHT22;7057;49.984;8.404;2023-03-01T09:14:00;3.70;99.90
13970;DHT22;7057;49.984;8.404;2023-03-01T09:16:28;3.80;99.90
13970;DHT22;7057;49.984;8.404;2023-03-01T09:18:59;4.00;99.90
13970;DHT22;7057;49.984;8.404;2023-03-01T09:21:26;3.90;99.90
13970;DHT22;7057;49.984;8.404;2023-03-01T09:23:56;4.00;99.90
13970;DHT22;7057;49.984;8.404;2023-03-01T09:26:25;4.00;99.90
13970;DHT22;7057;49.984;8.404;2023-03-01T09:28:54;4.00;99.90
13970;DHT22;7057;49.984;8.404;2023-03-01T09:31:23;4.00;99.90
13970;DHT22;7057;49.984;8.404;2023-03-01T09:33:52;4.20;99.90
13970;DHT22;7057;49.984;8.404;2023-03-01T09:36:22;4.20;99.90
13970;DHT22;7057;49.984;8.404;2023-03-01T09:38:49;4.20;99.90
13970;DHT22;7057;49.984;8.404;2023-03-01T09:41:44;4.10;99.90
13970;DHT22;7057;49.984;8.404;2023-03-01T09:44:25;4.00;99.90
13970;DHT22;7057;49.984;8.404;2023-03-01T09:46:55;4.20;99.90
13970;DHT22;7057;49.984;8.404;2023-03-01T09:49:25;4.30;99.90
13970;DHT22;7057;49.984;8.404;2023-03-01T09:51:59;4.40;99.90
13970;DHT22;7057;49.984;8.404;2023-03-01T09:54:26;4.50;99.90
13970;DHT22;7057;49.984;8.404;2023-03-01T09:57:06;4.60;99.90
13970;DHT22;7057;49.984;8.404;2023-03-01T09:59:47;4.70;99.90
13970;DHT22;7057;49.984;8.404;2023-03-01T10:02:26;4.60;99.90
13970;DHT22;7057;49.984;8.404;2023-03-01T10:04:58;4.60;99.90
13970;DHT22;7057;49.984;8.404;2023-03-01T10:07:32;4.80;99.90
13970;DHT22;7057;49.984;8.404;2023-03-01T10:10:08;4.90;99.90
13970;DHT22;7057;49.984;8.404;2023-03-01T10:12:43;4.80;99.90
13970;DHT22;7057;49.984;8.404;2023-03-01T10:15:14;4.80;99.90
13970;DHT22;7057;49.984;8.404;2023-03-01T10:17:47;4.90;99.90
13970;DHT22;7057;49.984;8.404;2023-03-01T10:20:18;5.00;99.90
13970;DHT22;7057;49.984;8.404;2023-03-01T10:22:46;5.00;99.90
13970;DHT22;7057;49.984;8.404;2023-03-01T10:25:24;5.10;99.90
13970;DHT22;7057;49.984;8.404;2023-03-01T10:28:02;5.30;99.90
13970;DHT22;7057;49.984;8.404;2023-03-01T10:30:35;5.30;99.90
13970;DHT22;7057;49.984;8.404;2023-03-01T10:33:13;5.50;99.90
13970;DHT22;7057;49.984;8.404;2023-03-01T10:35:42;5.50;99.90
13970;DHT22;7057;49.984;8.404;2023-03-01T10:38:11;5.50;99.90
13970;DHT22;7057;49.984;8.404;2023-03-01T10:40:51;5.50;99.90
13970;DHT22;7057;49.984;8.404;2023-03-01T10:43:20;5.50;99.90
13970;DHT22;7057;49.984;8.404;2023-03-01T10:45:48;5.40;99.90
13970;DHT22;7057;49.984;8.404;2023-03-01T10:48:18;5.50;99.90
13970;DHT22;7057;49.984;8.404;2023-03-01T10:50:51;5.50;99.90
13970;DHT22;7057;49.984;8.404;2023-03-01T10:53:26;5.80;99.90
13970;DHT22;7057;49.984;8.404;2023-03-01T10:56:00;5.60;99.90
13970;DHT22;7057;49.984;8.404;2023-03-01T10:58:29;5.60;99.90
13970;DHT22;7057;49.984;8.404;2023-03-01T11:00:58;5.70;99.90
13970;DHT22;7057;49.984;8.404;2023-03-01T11:03:27;5.80;99.90
13970;DHT22;7057;49.984;8.404;2023-03-01T11:06:01;5.90;99.90
13970;DHT22;7057;49.984;8.404;2023-03-01T11:08:47;5.90;99.90
13970;DHT22;7057;49.984;8.404;2023-03-01T11:11:26;5.90;99.90
13970;DHT22;7057;49.984;8.404;2023-03-01T11:14:00;5.80;99.90
13970;DHT22;7057;49.984;8.404;2023-03-01T11:16:34;5.80;99.90
13970;DHT22;7057;49.984;8.404;2023-03-01T11:19:16;5.90;99.90
13970;DHT22;7057;49.984;8.404;2023-03-01T11:21:54;6.10;99.90
13970;DHT22;7057;49.984;8.404;2023-03-01T11:24:29;6.10;99.90
13970;DHT22;7057;49.984;8.404;2023-03-01T11:27:02;6.20;99.90
13970;DHT22;7057;49.984;8.404;2023-03-01T11:29:36;6.30;99.90
13970;DHT22;7057;49.984;8.404;2023-03-01T11:32:07;6.40;99.90
13970;DHT22;7057;49.984;8.404;2023-03-01T11:34:40;6.60;99.90
13970;DHT22;7057;49.984;8.404;2023-03-01T11:37:19;6.70;99.90
13970;DHT22;7057;49.984;8.404;2023-03-01T11:39:56;6.60;99.90
13970;DHT22;7057;49.984;8.404;2023-03-01T11:42:31;6.70;99.90
13970;DHT22;7057;49.984;8.404;2023-03-01T11:45:07;6.70;99.90
13970;DHT22;7057;49.984;8.404;2023-03-01T11:47:49;6.60;99.90
13970;DHT22;7057;49.984;8.404;2023-03-01T11:50:28;6.70;99.90
13970;DHT22;7057;49.984;8.404;2023-03-01T11:53:09;6.80;99.90
13970;DHT22;7057;49.984;8.404;2023-03-01T11:55:54;6.90;99.90
13970;DHT22;7057;49.984;8.404;2023-03-01T11:58:39;6.90;99.90
13970;DHT22;7057;49.984;8.404;2023-03-01T12:01:19;7.00;99.90
13970;DHT22;7057;49.984;8.404;2023-03-01T12:04:23;7.00;99.90
13970;DHT22;7057;49.984;8.404;2023-03-01T12:06:57;6.90;99.90
13970;DHT22;7057;49.984;8.404;2023-03-01T12:09:34;7.00;99.90
13970;DHT22;7057;49.984;8.404;2023-03-01T12:12:28;7.00;99.90
13970;DHT22;7057;49.984;8.404;2023-03-01T12:15:28;7.00;99.90
13970;DHT22;7057;49.984;8.404;2023-03-01T12:18:11;7.10;99.90
13970;DHT22;7057;49.984;8.404;2023-03-01T12:20:45;7.20;99.90
13970;DHT22;7057;49.984;8.404;2023-03-01T12:26:21;7.30;99.90
13970;DHT22;7057;49.984;8.404;2023-03-01T12:28:59;7.50;99.90
13970;DHT22;7057;49.984;8.404;2023-03-01T12:31:47;7.50;99.90
13970;DHT22;7057;49.984;8.404;2023-03-01T12:34:33;7.60;99.90
13970;DHT22;7057;49.984;8.404;2023-03-01T12:37:15;7.80;99.90
13970;DHT22;7057;49.984;8.404;2023-03-01T12:39:55;7.80;99.90
13970;DHT22;7057;49.984;8.404;2023-03-01T12:42:31;7.70;99.90
13970;DHT22;7057;49.984;8.404;2023-03-01T12:45:31;7.60;99.90
13970;DHT22;7057;49.984;8.404;2023-03-01T12:48:13;7.70;99.90
13970;DHT22;7057;49.984;8.404;2023-03-01T12:50:47;7.80;99.90
13970;DHT22;7057;49.984;8.404;2023-03-01T12:53:22;8.00;99.90
13970;DHT22;7057;49.984;8.404;2023-03-01T12:55:50;8.10;99.90
13970;DHT22;7057;49.984;8.404;2023-03-01T12:58:24;8.10;99.90
13970;DHT22;7057;49.984;8.404;2023-03-01T13:01:05;8.20;99.90
13970;DHT22;7057;49.984;8.404;2023-03-01T13:03:53;8.30;99.90
13970;DHT22;7057;49.984;8.404;2023-03-01T13:06:34;8.40;99.90
13970;DHT22;7057;49.984;8.404;2023-03-01T13:09:14;8.40;99.90
13970;DHT22;7057;49.984;8.404;2023-03-01T13:11:45;8.40;99.90
13970;DHT22;7057;49.984;8.404;2023-03-01T13:14:35;8.30;99.90
13970;DHT22;7057;49.984;8.404;2023-03-01T13:17:02;8.20;99.90
13970;DHT22;7057;49.984;8.404;2023-03-01T13:19:30;8.20;99.90
13970;DHT22;7057;49.984;8.404;2023-03-01T13:21:59;8.10;99.90
13970;DHT22;7057;49.984;8.404;2023-03-01T13:24:28;8.20;99.90
13970;DHT22;7057;49.984;8.404;2023-03-01T13:27:22;8.30;99.90
13970;DHT22;7057;49.984;8.404;2023-03-01T13:29:56;8.40;99.90
13970;DHT22;7057;49.984;8.404;2023-03-01T13:32:26;8.50;99.90
13970;DHT22;7057;49.984;8.404;2023-03-01T13:34:56;8.50;99.90
13970;DHT22;7057;49.984;8.404;2023-03-01T13:37:30;8.40;99.90
13970;DHT22;7057;49.984;8.404;2023-03-01T13:39:59;8.50;99.90
13970;DHT22;7057;49.984;8.404;2023-03-01T13:42:39;8.60;99.90
13970;DHT22;7057;49.984;8.404;2023-03-01T13:45:17;8.60;99.90
13970;DHT22;7057;49.984;8.404;2023-03-01T13:47:46;8.50;99.90
13970;DHT22;7057;49.984;8.404;2023-03-01T13:50:20;8.60;99.90
13970;DHT22;7057;49.984;8.404;2023-03-01T13:52:52;8.60;99.90
13970;DHT22;7057;49.984;8.404;2023-03-01T13:55:24;8.50;99.90
13970;DHT22;7057;49.984;8.404;2023-03-01T13:57:55;8.50;99.90
13970;DHT22;7057;49.984;8.404;2023-03-01T14:00:32;8.50;99.90
13970;DHT22;7057;49.984;8.404;2023-03-01T14:03:11;8.70;99.90
13970;DHT22;7057;49.984;8.404;2023-03-01T14:05:40;8.70;99.90
13970;DHT22;7057;49.984;8.404;2023-03-01T14:08:21;8.70;99.90
13970;DHT22;7057;49.984;8.404;2023-03-01T14:11:04;8.60;99.90
13970;DHT22;7057;49.984;8.404;2023-03-01T14:13:49;8.50;99.90
13970;DHT22;7057;49.984;8.404;2023-03-01T14:16:27;8.50;99.90
13970;DHT22;7057;49.984;8.404;2023-03-01T14:19:06;8.50;99.90
13970;DHT22;7057;49.984;8.404;2023-03-01T14:21:37;8.50;99.90
13970;DHT22;7057;49.984;8.404;2023-03-01T14:24:06;8.50;99.90
13970;DHT22;7057;49.984;8.404;2023-03-01T14:26:42;8.60;99.90
13970;DHT22;7057;49.984;8.404;2023-03-01T14:29:24;8.70;99.90
13970;DHT22;7057;49.984;8.404;2023-03-01T14:31:51;8.80;99.90
13970;DHT22;7057;49.984;8.404;2023-03-01T14:34:20;9.00;99.90
13970;DHT22;7057;49.984;8.404;2023-03-01T14:36:48;9.00;99.90
13970;DHT22;7057;49.984;8.404;2023-03-01T14:39:25;9.00;99.90
13970;DHT22;7057;49.984;8.404;2023-03-01T14:41:52;8.90;99.90
13970;DHT22;7057;49.984;8.404;2023-03-01T14:44:22;8.90;99.90
13970;DHT22;7057;49.984;8.404;2023-03-01T14:46:53;8.80;99.90
13970;DHT22;7057;49.984;8.404;2023-03-01T14:49:24;8.80;99.90
13970;DHT22;7057;49.984;8.404;2023-03-01T14:51:54;8.80;99.90
13970;DHT22;7057;49.984;8.404;2023-03-01T14:54:26;8.80;99.90
13970;DHT22;7057;49.984;8.404;2023-03-01T14:56:59;8.70;99.90
13970;DHT22;7057;49.984;8.404;2023-03-01T14:59:27;8.70;99.90
13970;DHT22;7057;49.984;8.404;2023-03-01T15:01:57;8.70;99.90
13970;DHT22;7057;49.984;8.404;2023-03-01T15:04:26;8.50;99.90
13970;DHT22;7057;49.984;8.404;2023-03-01T15:06:55;8.70;99.90
13970;DHT22;7057;49.984;8.404;2023-03-01T15:09:29;8.70;99.90
13970;DHT22;7057;49.984;8.404;2023-03-01T15:11:56;8.70;99.90
13970;DHT22;7057;49.984;8.404;2023-03-01T15:14:29;8.80;99.90
13970;DHT22;7057;49.984;8.404;2023-03-01T15:17:03;8.80;99.90
13970;DHT22;7057;49.984;8.404;2023-03-01T15:19:31;8.90;99.90
13970;DHT22;7057;49.984;8.404;2023-03-01T15:21:58;9.00;99.90
13970;DHT22;7057;49.984;8.404;2023-03-01T15:24:26;9.00;99.90
13970;DHT22;7057;49.984;8.404;2023-03-01T15:26:58;8.90;99.90
13970;DHT22;7057;49.984;8.404;2023-03-01T15:29:33;8.80;99.90
13970;DHT22;7057;49.984;8.404;2023-03-01T15:32:23;8.80;99.90
13970;DHT22;7057;49.984;8.404;2023-03-01T15:34:51;8.50;99.90
13970;DHT22;7057;49.984;8.404;2023-03-01T15:37:36;8.50;99.90
13970;DHT22;7057;49.984;8.404;2023-03-01T15:40:18;8.50;99.90
13970;DHT22;7057;49.984;8.404;2023-03-01T15:42:47;8.50;99.90
13970;DHT22;7057;49.984;8.404;2023-03-01T15:45:25;8.70;99.90
13970;DHT22;7057;49.984;8.404;2023-03-01T15:47:54;8.60;99.90
13970;DHT22;7057;49.984;8.404;2023-03-01T15:50:25;8.60;99.90
13970;DHT22;7057;49.984;8.404;2023-03-01T15:52:54;8.60;99.90
13970;DHT22;7057;49.984;8.404;2023-03-01T15:55:23;8.50;99.90
13970;DHT22;7057;49.984;8.404;2023-03-01T15:58:00;8.50;99.90
13970;DHT22;7057;49.984;8.404;2023-03-01T16:00:28;8.50;99.90
13970;DHT22;7057;49.984;8.404;2023-03-01T16:02:56;8.50;99.90
13970;DHT22;7057;49.984;8.404;2023-03-01T16:05:25;8.50;99.90
13970;DHT22;7057;49.984;8.404;2023-03-01T16:07:53;8.40;99.90
13970;DHT22;7057;49.984;8.404;2023-03-01T16:10:21;8.30;99.90
13970;DHT22;7057;49.984;8.404;2023-03-01T16:12:48;8.40;99.90
13970;DHT22;7057;49.984;8.404;2023-03-01T16:15:20;8.30;99.90
13970;DHT22;7057;49.984;8.404;2023-03-01T16:17:48;8.20;99.90
13970;DHT22;7057;49.984;8.404;2023-03-01T16:20:16;8.20;99.90
13970;DHT22;7057;49.984;8.404;2023-03-01T16:22:44;8.10;99.90
13970;DHT22;7057;49.984;8.404;2023-03-01T16:25:12;8.10;99.90
13970;DHT22;7057;49.984;8.404;2023-03-01T16:27:42;8.20;99.90
13970;DHT22;7057;49.984;8.404;2023-03-01T16:30:10;8.00;99.90